Flight Track Log - Related Links

Times and Time Zones

All times are in EDT time to prevent confusion due to time zone crossing. See the N273SK flight status page for this flight to view local times or setup timezone preferences in your user account.

Time Position Orientation Groundspeed Altitude Reporting Facility
EDT Latitude Longitude Course Direction KTS MPH feet Rate Location/Type
Mon 04:40:07 PM 40.6167 -73.7833 166° South 162 186 1,500  Level New York TRACON
Mon 04:41:07 PM 40.5667 -73.7667 166° South 223 257 3,800 2,450 Climbing New York TRACON
Mon 04:42:07 PM 40.4833 -73.7500 171° South 260 299 6,400 2,600 Climbing New York TRACON
Mon 04:43:07 PM 40.4500 -73.8167 237° Southwest 270 311 9,000 2,250 Climbing New York TRACON
Mon 04:44:07 PM 40.4167 -73.9167 246° West 284 327 10,900 1,050 Climbing New York TRACON
Mon 04:45:07 PM 40.3667 -74.0167 237° Southwest 347 399 11,100 500 Climbing New York TRACON
Mon 04:46:07 PM 40.3333 -74.1333 249° West 365 420 11,900 1,125 Climbing New York TRACON
Mon 04:46:59 PM 40.2983 -74.2353 246° West 369 425 13,200 1,632 Climbing New York Center
Mon 04:48:01 PM 40.2506 -74.3661 244° Southwest 386 444 15,000 1,500 Climbing New York Center
Mon 04:48:59 PM 40.2072 -74.4861 245° Southwest 377 434 16,200 1,333 Climbing New York Center
Mon 04:49:58 PM 40.1925 -74.6186 262° West 371 427 17,600 1,250 Climbing New York Center
Mon 04:50:59 PM 40.1819 -74.7511 264° West 365 420 18,700 1,180 Climbing New York Center
Mon 04:52:00 PM 40.1731 -74.8836 265° West 372 428 20,000 1,279 Climbing New York Center
Mon 04:53:01 PM 40.1622 -75.0161 264° West 372 428 21,300 1,008 Climbing New York Center
Mon 04:53:59 PM 40.1508 -75.1567 264° West 378 435 22,000 915 Climbing New York Center
Mon 04:54:59 PM 40.1392 -75.2972 264° West 389 448 23,100 1,140 Climbing New York Center
Mon 04:56:00 PM 40.1300 -75.4242 265° West 389 448 24,300 1,091 Climbing New York Center
Mon 04:57:00 PM 40.1183 -75.5592 264° West 389 448 25,300 1,000 Climbing New York Center
Mon 04:58:00 PM 40.1067 -75.6967 264° West 389 448 26,300 864 Climbing New York Center
Mon 04:58:58 PM 40.0944 -75.8342 263° West 389 448 27,000 864 Climbing New York Center
Mon 04:59:58 PM 40.0822 -75.9717 263° West 389 448 28,000 992 Climbing New York Center
Mon 05:00:59 PM 40.0697 -76.1119 263° West 389 448 29,000 984 Climbing New York Center
Mon 05:02:00 PM 40.0547 -76.2544 262° West 389 448 30,000 992 Climbing New York Center
Mon 05:03:00 PM 40.0153 -76.3842 248° West 395 455 31,000 1,008 Climbing New York Center
Mon 05:03:59 PM 39.9656 -76.5103 243° Southwest 389 448 32,000 1,008 Climbing New York Center
Mon 05:04:59 PM 39.9094 -76.6356 240° Southwest 394 453 33,000 992 Climbing New York Center
Mon 05:06:00 PM 39.8572 -76.7611 242° Southwest 399 459 34,000 667 Climbing New York Center
Mon 05:06:29 PM 39.8239 -76.8342 239° Southwest 405 466 34,000  Level Washington Center
Mon 05:07:39 PM 39.7578 -76.9842 240° Southwest 400 460 34,000  Level Washington Center
Mon 05:08:39 PM 39.7061 -77.1072 241° Southwest 400 460 34,000  Level Washington Center
Mon 05:09:39 PM 39.6547 -77.2275 241° Southwest 400 460 34,000  Level Washington Center
Mon 05:10:39 PM 39.6031 -77.3475 241° Southwest 395 455 34,000  Level Washington Center
Mon 05:11:39 PM 39.5511 -77.4700 241° Southwest 395 455 34,000 -250 Level Washington Center
Mon 05:12:39 PM 39.4992 -77.5897 241° Southwest 390 449 33,500  Descending Washington Center
Mon 05:13:39 PM 39.4369 -77.7008 234° Southwest 390 449 34,000 250 Climbing Washington Center
Mon 05:14:39 PM 39.3642 -77.8089 229° Southwest 396 456 34,000  Level Washington Center
Mon 05:15:39 PM 39.2892 -77.9192 229° Southwest 407 468 34,000  Level Washington Center
Mon 05:16:39 PM 39.2203 -78.0294 231° Southwest 407 468 34,000  Level Washington Center
Mon 05:17:39 PM 39.1556 -78.1292 230° Southwest 407 468 34,000  Level Washington Center
Mon 05:18:39 PM 39.0783 -78.2281 225° Southwest 401 461 34,000 50 Level Washington Center
Mon 05:19:39 PM 39.0217 -78.3436 238° Southwest 396 456 34,100  Climbing Washington Center
Mon 05:20:39 PM 38.9914 -78.4761 254° West 380 437 34,000 -50 Descending Washington Center
Mon 05:21:39 PM 38.9653 -78.6111 256° West 385 443 34,000  Level Washington Center
Mon 05:22:39 PM 38.9369 -78.7408 254° West 390 449 34,000  Level Washington Center
Mon 05:23:39 PM 38.9083 -78.8728 254° West 390 449 34,000  Level Washington Center
Mon 05:24:39 PM 38.8794 -79.0050 254° West 390 449 34,000 350 Level Washington Center
Mon 05:25:39 PM 38.8508 -79.1342 254° West 390 449 34,700 500 Climbing Washington Center
Mon 05:26:39 PM 38.8261 -79.2608 256° West 385 443 35,000 150 Climbing Washington Center
Mon 05:27:39 PM 38.8033 -79.3958 258° West 385 443 35,000  Level Washington Center
Mon 05:28:39 PM 38.7756 -79.5461 257° West 391 450 35,000  Level Washington Center
Mon 05:29:39 PM 38.7564 -79.6756 259° West 401 461 35,000  Level Washington Center
Mon 05:30:39 PM 38.7331 -79.8100 257° West 401 461 35,000  Level Washington Center
Mon 05:31:39 PM 38.7075 -79.9442 256° West 396 456 35,000 339 Level Washington Center
Mon 05:33:36 PM 38.6569 -80.1925 255° West 380 437 36,000 337 Climbing Indianapolis Center
Mon 05:34:37 PM 38.6328 -80.3228 257° West 376 433 36,000  Level Indianapolis Center
Mon 05:35:39 PM 38.6078 -80.4525 256° West 376 433 36,000  Level Indianapolis Center
Mon 05:36:41 PM 38.5783 -80.6086 256° West 377 434 36,000  Level Indianapolis Center
Mon 05:37:43 PM 38.5536 -80.7408 257° West 380 437 36,000 48 Level Indianapolis Center
Mon 05:38:45 PM 38.5294 -80.8719 257° West 379 436 36,100 48 Climbing Indianapolis Center
Mon 05:39:47 PM 38.4972 -80.9997 252° West 378 435 36,100 -48 Level Indianapolis Center
Mon 05:40:49 PM 38.4442 -81.1192 240° Southwest 385 443 36,000  Descending Indianapolis Center
Mon 05:41:51 PM 38.4061 -81.2444 249° West 378 435 36,100 -145 Climbing Indianapolis Center
Mon 05:42:53 PM 38.3744 -81.3725 253° West 376 433 35,700 -968 Descending Indianapolis Center
Mon 05:43:55 PM 38.3436 -81.4994 253° West 372 428 34,100 -1,645 Descending Indianapolis Center
Mon 05:44:57 PM 38.3056 -81.6522 252° West 373 429 32,300 -1,016 Descending Indianapolis Center
Mon 05:45:59 PM 38.2742 -81.7778 252° West 369 425 32,000 -145 Descending Indianapolis Center
Mon 05:47:01 PM 38.2433 -81.9022 253° West 367 422 32,000  Level Indianapolis Center
Mon 05:48:03 PM 38.2114 -82.0306 252° West 378 435 32,000  Level Indianapolis Center
Mon 05:49:05 PM 38.1783 -82.1600 252° West 383 441 32,000  Level Indianapolis Center
Mon 05:50:07 PM 38.1450 -82.2928 252° West 393 452 32,000  Level Indianapolis Center
Mon 05:51:09 PM 38.1114 -82.4247 252° West 394 453 32,000  Level Indianapolis Center
Mon 05:52:11 PM 38.0761 -82.5664 252° West 397 457 32,000  Level Indianapolis Center
Mon 05:53:13 PM 38.0356 -82.7200 252° West 396 456 32,000  Level Indianapolis Center
Mon 05:54:15 PM 38.0008 -82.8531 252° West 398 458 32,000  Level Indianapolis Center
Mon 05:55:17 PM 37.9667 -82.9869 252° West 400 460 32,000  Level Indianapolis Center
Mon 05:56:19 PM 37.9325 -83.1178 252° West 394 453 32,000  Level Indianapolis Center
Mon 05:57:21 PM 37.8967 -83.2517 251° West 399 459 32,000  Level Indianapolis Center
Mon 05:58:23 PM 37.8561 -83.4064 252° West 398 458 32,000  Level Indianapolis Center
Mon 05:59:25 PM 37.8208 -83.5372 251° West 396 456 32,000 -823 Level Indianapolis Center
Mon 06:00:27 PM 37.7875 -83.6642 252° West 387 445 30,300 -1,694 Descending Indianapolis Center
Mon 06:01:29 PM 37.7533 -83.7933 252° West 388 447 28,500 -1,645 Descending Indianapolis Center
Mon 06:02:31 PM 37.7153 -83.9264 250° West 398 458 26,900 -1,597 Descending Indianapolis Center
Mon 06:03:33 PM 37.6803 -84.0583 252° West 400 460 25,200 -1,984 Descending Indianapolis Center
Mon 06:04:35 PM 37.6547 -84.2133 258° West 393 452 22,800 -2,177 Descending Indianapolis Center
Mon 06:05:37 PM 37.6539 -84.3458 270° West 380 437 20,700 -2,177 Descending Indianapolis Center
Mon 06:06:39 PM 37.6547 -84.4775 270° West 376 433 18,300 -2,323 Descending Indianapolis Center
Mon 06:07:41 PM 37.6536 -84.6047 269° West 368 423 15,900 -2,226 Descending Indianapolis Center
Mon 06:08:43 PM 37.6547 -84.7311 271° West 363 418 13,700 -2,032 Descending Indianapolis Center
Mon 06:09:45 PM 37.6542 -84.8764 270° West 354 407 11,700 -1,306 Descending Indianapolis Center
Mon 06:10:47 PM 37.6772 -84.9897 284° West 339 390 11,000 -488 Descending Indianapolis Center
Mon 06:11:48 PM 37.7447 -85.0803 313° West 348 400 10,700 -488 Descending Indianapolis Center
Mon 06:12:50 PM 37.8075 -85.1686 312° West 339 390 10,000 -339 Descending Indianapolis Center
Mon 06:13:52 PM 37.8750 -85.2578 314° West 334 384 10,000 -636 Level Indianapolis Center
Mon 06:15:02 PM 37.9353 -85.3422 312° West 266 306 8,600 -1,267 Descending FAA TRACON SMA TRACON (SMA)
Mon 06:15:22 PM 37.9511 -85.3636 313° West 270 311 8,100 -1,650 Descending FAA TRACON SMA TRACON (SMA)
Mon 06:15:42 PM 37.9697 -85.3903 312° West 266 306 7,500 -1,650 Descending FAA TRACON SMA TRACON (SMA)
Mon 06:16:02 PM 37.9847 -85.4117 312° West 263 303 7,000 -1,350 Descending FAA TRACON SMA TRACON (SMA)
Mon 06:16:22 PM 37.9997 -85.4322 313° West 260 299 6,600 -1,350 Descending FAA TRACON SMA TRACON (SMA)
Mon 06:16:42 PM 38.0181 -85.4575 313° West 254 292 6,100 -900 Descending FAA TRACON SMA TRACON (SMA)
Mon 06:17:02 PM 38.0322 -85.4778 312° West 249 287 6,000 -150 Descending FAA TRACON SMA TRACON (SMA)
Mon 06:17:22 PM 38.0461 -85.4978 311° West 246 283 6,000  Level FAA TRACON SMA TRACON (SMA)
Mon 06:17:43 PM 38.0644 -85.5225 313° West 249 287 6,000  Level FAA TRACON SMA TRACON (SMA)
Mon 06:18:02 PM 38.0786 -85.5422 312° West 249 287 6,000  Level FAA TRACON SMA TRACON (SMA)
Mon 06:18:22 PM 38.0931 -85.5631 311° West 252 290 6,000  Level FAA TRACON SMA TRACON (SMA)
Mon 06:18:42 PM 38.1172 -85.5792 332° Northwest 266 306 6,000  Level FAA TRACON SMA TRACON (SMA)
Mon 06:19:02 PM 38.1394 -85.5856 347° North 266 306 6,000  Level FAA TRACON SMA TRACON (SMA)
Mon 06:19:22 PM 38.1617 -85.5911 349° North 264 304 6,000 -450 Level FAA TRACON SMA TRACON (SMA)
Mon 06:19:42 PM 38.1889 -85.5983 348° North 259 298 5,700 -1,350 Descending FAA TRACON SMA TRACON (SMA)
Mon 06:20:02 PM 38.2097 -85.6042 348° North 251 289 5,100 -1,800 Descending FAA TRACON SMA TRACON (SMA)
Mon 06:20:22 PM 38.2300 -85.6108 346° North 246 283 4,500 -1,950 Descending FAA TRACON SMA TRACON (SMA)
Mon 06:20:42 PM 38.2550 -85.6203 343° North 243 280 3,800 -1,950 Descending FAA TRACON SMA TRACON (SMA)
Mon 06:21:02 PM 38.2747 -85.6283 342° North 242 278 3,200 -1,171 Descending FAA TRACON SMA TRACON (SMA)
Mon 06:21:23 PM 38.2983 -85.6378 343° North 235 270 3,000 -300 Descending FAA TRACON SMA TRACON (SMA)
Mon 06:21:42 PM 38.3167 -85.6456 342° North 227 261 3,000 -154 Level FAA TRACON SMA TRACON (SMA)
Mon 06:22:02 PM 38.3294 -85.6606 317° Northwest 220 253 2,900 -600 Descending FAA TRACON SMA TRACON (SMA)
Mon 06:22:22 PM 38.3294 -85.6883 270° West 213 245 2,600 -600 Descending FAA TRACON SMA TRACON (SMA)
Mon 06:22:42 PM 38.3236 -85.7078 249° West 203 234 2,500 -150 Descending FAA TRACON SMA TRACON (SMA)
Mon 06:23:02 PM 38.3144 -85.7244 235° Southwest 189 217 2,500  Level FAA TRACON SMA TRACON (SMA)
Mon 06:23:22 PM 38.3033 -85.7442 234° Southwest 179 206 2,500  Level FAA TRACON SMA TRACON (SMA)
Mon 06:23:42 PM 38.2911 -85.7539 212° Southwest 174 200 2,500 -300 Level FAA TRACON SMA TRACON (SMA)
Mon 06:24:02 PM 38.2789 -85.7586 197° South 158 182 2,300 -600 Descending FAA TRACON SMA TRACON (SMA)
Mon 06:24:22 PM 38.2642 -85.7578 177° South 141 162 2,100 -600 Descending FAA TRACON SMA TRACON (SMA)
Mon 06:24:42 PM 38.2533 -85.7542 165° South 133 153 1,900 -600 Descending FAA TRACON SMA TRACON (SMA)
Mon 06:25:02 PM 38.2428 -85.7503 164° South 127 146 1,700 -682 Descending FAA TRACON SMA TRACON (SMA)
Mon 06:25:26 PM 38.2294 -85.7461 166° South 128 147 1,400 -837 Descending FAA TRACON SMA TRACON (SMA)
Mon 06:25:45 PM 38.2164 -85.7411 163° South 129 148 1,100 -667 Descending FAA TRACON SMA TRACON (SMA)
Mon 06:26:02 PM 38.2081 -85.7383 165° South 129 148 1,000 -649 Descending FAA TRACON SMA TRACON (SMA)
Mon 06:26:22 PM 38.1947 -85.7339 165° South 129 148 700 -900 Descending FAA TRACON SMA TRACON (SMA)

Login

Don't have an account? Register now (free) for customized features, flight alerts, and more!